createdAt,value
2023-04-16T00:00:22.266Z,18.76
2023-04-16T00:02:50.553Z,18.74
2023-04-16T00:05:18.727Z,18.76
2023-04-16T00:07:46.773Z,18.76
2023-04-16T00:10:16.215Z,18.77
2023-04-16T00:12:45.708Z,18.77
2023-04-16T00:15:13.821Z,18.76
2023-04-16T00:17:41.898Z,18.75
2023-04-16T00:20:11.546Z,18.75
2023-04-16T00:22:39.585Z,18.76
2023-04-16T00:25:08.046Z,18.76
2023-04-16T00:27:36.286Z,18.75
2023-04-16T00:30:06.924Z,18.76
2023-04-16T00:32:35.076Z,18.76
2023-04-16T00:35:03.191Z,18.76
2023-04-16T00:37:31.922Z,18.75
2023-04-16T00:39:59.986Z,18.75
2023-04-16T00:42:28.118Z,18.74
2023-04-16T00:44:56.215Z,18.75
2023-04-16T00:47:25.985Z,18.76
2023-04-16T00:49:54.272Z,18.76
2023-04-16T00:52:22.401Z,18.75
2023-04-16T00:54:50.633Z,18.75
2023-04-16T00:57:21.155Z,18.51
2023-04-16T00:59:49.269Z,18.74
2023-04-16T01:02:17.830Z,18.76
2023-04-16T01:04:47.557Z,18.76
2023-04-16T01:07:15.632Z,18.76
2023-04-16T01:09:43.758Z,18.76
2023-04-16T01:12:11.896Z,18.75
2023-04-16T01:14:40.059Z,18.69
2023-04-16T01:17:08.139Z,18.75
2023-04-16T01:19:37.263Z,18.75
2023-04-16T01:22:06.915Z,18.73
2023-04-16T01:24:35.913Z,18.76
2023-04-16T01:27:04.032Z,18.76
2023-04-16T01:29:32.082Z,18.76
2023-04-16T01:32:00.236Z,18.76
2023-04-16T01:34:30.661Z,18.76
2023-04-16T01:36:58.693Z,18.76
2023-04-16T01:39:28.140Z,18.78
2023-04-16T01:41:57.204Z,18.77
2023-04-16T01:44:25.648Z,18.76
2023-04-16T01:46:53.732Z,18.74
2023-04-16T01:49:21.892Z,18.76
2023-04-16T01:51:50.070Z,18.75
2023-04-16T01:54:18.132Z,18.75
2023-04-16T01:56:47.572Z,18.75
2023-04-16T01:59:15.698Z,18.76
2023-04-16T02:01:44.054Z,18.76
2023-04-16T02:04:13.913Z,18.76
2023-04-16T02:06:41.976Z,18.77
2023-04-16T02:09:10.420Z,18.76
2023-04-16T02:11:38.786Z,18.76
2023-04-16T02:14:08.839Z,18.75
2023-04-16T02:16:36.882Z,18.75
2023-04-16T02:19:04.933Z,18.76
2023-04-16T02:21:32.970Z,18.73
2023-04-16T02:24:01.138Z,18.76
2023-04-16T02:26:29.804Z,18.75
2023-04-16T02:28:57.903Z,18.76
2023-04-16T02:31:28.571Z,18.73
2023-04-16T02:33:56.619Z,18.72
2023-04-16T02:36:24.950Z,18.75
2023-04-16T02:38:53.034Z,18.76
2023-04-16T02:41:21.158Z,18.75
2023-04-16T02:43:49.179Z,18.76
2023-04-16T02:46:17.263Z,18.77
2023-04-16T02:48:46.735Z,18.75
2023-04-16T02:51:14.754Z,18.75
2023-04-16T02:53:46.060Z,18.75
2023-04-16T02:56:14.330Z,18.74
2023-04-16T02:58:42.397Z,18.73
2023-04-16T03:01:11.159Z,18.75
2023-04-16T03:03:39.205Z,18.75
2023-04-16T03:06:08.734Z,18.76
2023-04-16T03:08:36.808Z,18.75
2023-04-16T03:11:04.936Z,18.75
2023-04-16T03:13:32.968Z,18.76
2023-04-16T03:16:01.116Z,18.76
2023-04-16T03:18:29.254Z,18.76
2023-04-16T03:20:57.294Z,18.77
2023-04-16T03:23:26.788Z,18.77
2023-04-16T03:25:55.056Z,18.77
2023-04-16T03:28:23.136Z,18.74
2023-04-16T03:30:54.814Z,18.76
2023-04-16T03:33:22.973Z,18.75
2023-04-16T03:35:57.711Z,18.76
2023-04-16T03:38:27.406Z,18.75
2023-04-16T03:40:55.442Z,18.75
2023-04-16T03:43:23.573Z,18.76
2023-04-16T03:45:51.984Z,18.75
2023-04-16T03:48:20.046Z,18.75
2023-04-16T03:50:48.745Z,18.75
2023-04-16T03:53:16.853Z,18.76
2023-04-16T03:55:46.341Z,18.75
2023-04-16T03:58:14.394Z,18.73
2023-04-16T04:00:43.556Z,18.74
2023-04-16T04:03:12.040Z,18.75
2023-04-16T04:05:41.689Z,18.76
2023-04-16T04:08:10.738Z,18.75
2023-04-16T04:10:38.884Z,18.75
2023-04-16T04:13:08.764Z,18.75
2023-04-16T04:15:37.081Z,18.74
2023-04-16T04:18:05.363Z,18.76
2023-04-16T04:20:33.460Z,18.75
2023-04-16T04:23:01.515Z,18.75
2023-04-16T04:25:29.741Z,18.75
2023-04-16T04:27:57.859Z,18.75
2023-04-16T04:30:27.417Z,18.76
2023-04-16T04:32:55.576Z,18.79
2023-04-16T04:35:23.961Z,18.80
2023-04-16T04:37:52.097Z,18.84
2023-04-16T04:40:20.459Z,18.84
2023-04-16T04:42:48.576Z,18.84
2023-04-16T04:45:17.047Z,18.88
2023-04-16T04:47:46.569Z,18.82
2023-04-16T04:50:14.704Z,18.89
2023-04-16T04:52:42.794Z,18.91
2023-04-16T04:55:11.418Z,18.91
2023-04-16T04:57:39.513Z,18.92
2023-04-16T05:00:08.970Z,18.93
2023-04-16T05:02:37.502Z,18.91
2023-04-16T05:05:07.936Z,18.92
2023-04-16T05:07:36.107Z,18.95
2023-04-16T05:10:04.325Z,18.97
2023-04-16T05:12:32.601Z,19.02
2023-04-16T05:15:00.819Z,19.04
2023-04-16T05:17:29.029Z,19.05
2023-04-16T05:19:57.144Z,19.03
2023-04-16T05:22:26.621Z,19.01
2023-04-16T05:24:54.763Z,18.97
2023-04-16T05:27:24.354Z,18.93
2023-04-16T05:29:52.532Z,18.91
2023-04-16T05:32:20.643Z,18.87
2023-04-16T05:34:48.777Z,18.89
2023-04-16T05:37:16.881Z,18.88
2023-04-16T05:39:46.472Z,18.84
2023-04-16T05:42:14.618Z,18.84
2023-04-16T05:44:42.737Z,18.84
2023-04-16T05:47:10.982Z,18.84
2023-04-16T05:49:39.086Z,18.82
2023-04-16T05:52:07.562Z,18.82
2023-04-16T05:54:35.698Z,18.83
2023-04-16T05:57:05.401Z,18.82
2023-04-16T05:59:34.551Z,18.81
2023-04-16T06:02:02.766Z,18.81
2023-04-16T06:04:31.134Z,18.81
2023-04-16T06:06:59.239Z,18.81
2023-04-16T06:09:27.358Z,18.82
2023-04-16T06:11:55.542Z,18.81
2023-04-16T06:14:25.031Z,18.81
2023-04-16T06:16:53.136Z,18.83
2023-04-16T06:19:21.243Z,18.82
2023-04-16T06:21:49.401Z,18.83
2023-04-16T06:24:18.531Z,18.83
2023-04-16T06:26:46.699Z,18.83
2023-04-16T06:29:15.365Z,18.83
2023-04-16T06:31:44.955Z,18.83
2023-04-16T06:34:13.397Z,18.81
2023-04-16T06:36:41.548Z,18.80
2023-04-16T06:39:09.994Z,18.78
2023-04-16T06:41:38.306Z,18.81
2023-04-16T06:44:06.771Z,18.80
2023-04-16T06:46:34.929Z,18.80
2023-04-16T06:49:04.533Z,18.80
2023-04-16T06:51:32.752Z,18.79
2023-04-16T06:54:00.983Z,18.79
2023-04-16T06:56:29.141Z,18.79
2023-04-16T06:58:59.018Z,18.79
2023-04-16T07:01:27.365Z,18.79
2023-04-16T07:03:56.044Z,18.77
2023-04-16T07:06:26.825Z,18.79
2023-04-16T07:08:54.991Z,18.79
2023-04-16T07:11:23.196Z,18.78
2023-04-16T07:13:53.284Z,18.76
2023-04-16T07:16:21.517Z,18.79
2023-04-16T07:18:49.639Z,18.78
2023-04-16T07:21:17.767Z,18.77
2023-04-16T07:23:47.293Z,18.70
2023-04-16T07:26:15.411Z,18.77
2023-04-16T07:28:43.581Z,18.77
2023-04-16T07:31:11.738Z,18.77
2023-04-16T07:33:39.828Z,18.74
2023-04-16T07:36:08.551Z,18.74
2023-04-16T07:38:36.687Z,18.74
2023-04-16T07:41:06.329Z,18.75
2023-04-16T07:43:34.483Z,18.77
2023-04-16T07:46:02.646Z,18.76
2023-04-16T07:48:30.823Z,18.75
2023-04-16T07:50:59.696Z,18.75
2023-04-16T07:53:27.810Z,18.77
2023-04-16T07:55:55.931Z,18.75
2023-04-16T07:58:25.560Z,18.75
2023-04-16T08:00:54.738Z,18.75
2023-04-16T08:03:23.594Z,18.73
2023-04-16T08:05:51.858Z,18.75
2023-04-16T08:08:20.068Z,18.75
2023-04-16T08:10:48.210Z,18.74
2023-04-16T08:13:16.335Z,18.74
2023-04-16T08:15:46.341Z,18.73
2023-04-16T08:18:16.160Z,18.75
2023-04-16T08:20:44.672Z,18.73
2023-04-16T08:23:13.325Z,18.77
2023-04-16T08:25:41.582Z,18.73
2023-04-16T08:28:10.045Z,18.74
2023-04-16T08:30:38.345Z,18.75
2023-04-16T08:33:07.931Z,18.75
2023-04-16T08:35:36.193Z,18.75
2023-04-16T08:38:05.195Z,18.74
2023-04-16T08:40:36.277Z,18.77
2023-04-16T08:43:07.429Z,19.00
2023-04-16T08:45:37.859Z,19.02
2023-04-16T08:48:08.453Z,19.03
2023-04-16T08:50:37.492Z,19.00
2023-04-16T08:53:07.566Z,19.01
2023-04-16T08:55:39.325Z,18.97
2023-04-16T08:58:11.870Z,18.95
2023-04-16T09:00:41.147Z,18.91
2023-04-16T09:03:11.591Z,18.88
2023-04-16T09:05:40.299Z,18.84
2023-04-16T09:08:08.424Z,18.85
2023-04-16T09:10:36.786Z,18.84
2023-04-16T09:13:05.271Z,18.82
2023-04-16T09:15:35.162Z,18.81
2023-04-16T09:18:03.403Z,18.80
2023-04-16T09:20:32.851Z,18.80
2023-04-16T09:23:01.036Z,18.79
2023-04-16T09:25:30.006Z,18.78
2023-04-16T09:27:58.059Z,18.76
2023-04-16T09:30:27.686Z,18.78
2023-04-16T09:33:16.684Z,18.76
2023-04-16T09:35:50.654Z,18.75
2023-04-16T09:38:19.100Z,18.78
2023-04-16T09:40:48.329Z,18.77
2023-04-16T09:43:17.718Z,18.77
2023-04-16T09:45:52.581Z,18.77
2023-04-16T09:48:30.170Z,18.76
2023-04-16T09:50:59.785Z,18.75
2023-04-16T09:53:30.283Z,18.76
2023-04-16T09:55:59.737Z,18.72
2023-04-16T09:58:28.810Z,18.76
2023-04-16T10:00:57.836Z,18.78
2023-04-16T10:03:33.304Z,18.75
2023-04-16T10:06:09.878Z,18.79
2023-04-16T10:08:38.077Z,18.77
2023-04-16T10:11:06.702Z,18.78
2023-04-16T10:13:34.779Z,18.76
2023-04-16T10:16:04.406Z,18.77
2023-04-16T10:18:32.754Z,18.77
2023-04-16T10:21:01.838Z,18.77
2023-04-16T10:23:32.132Z,18.76
2023-04-16T10:26:02.479Z,18.76
2023-04-16T10:28:31.627Z,18.75
2023-04-16T10:31:01.102Z,18.76
2023-04-16T10:33:30.648Z,18.76
2023-04-16T10:36:12.554Z,18.76
2023-04-16T10:38:43.264Z,18.76
2023-04-16T10:41:12.123Z,18.76
2023-04-16T10:43:42.642Z,18.33
2023-04-16T10:46:21.893Z,18.76
2023-04-16T10:48:51.687Z,18.76
2023-04-16T10:51:29.407Z,18.75
2023-04-16T10:54:03.870Z,18.75
2023-04-16T10:56:34.270Z,18.75
2023-04-16T10:59:03.173Z,18.76
2023-04-16T11:01:34.100Z,18.73
2023-04-16T11:04:23.467Z,18.77
2023-04-16T11:07:17.041Z,18.80
2023-04-16T11:10:00.519Z,18.80
2023-04-16T11:12:34.872Z,18.81
2023-04-16T11:15:03.892Z,18.82
2023-04-16T11:17:34.958Z,18.80
2023-04-16T11:20:03.353Z,18.80
2023-04-16T11:22:43.078Z,18.79
2023-04-16T11:25:13.093Z,18.78
2023-04-16T11:27:42.288Z,18.80
2023-04-16T11:30:11.142Z,18.79
2023-04-16T11:32:40.170Z,18.79
2023-04-16T11:35:15.569Z,18.76
2023-04-16T11:37:44.337Z,18.78
2023-04-16T11:40:14.367Z,18.75
2023-04-16T11:42:44.326Z,18.78
2023-04-16T11:45:14.066Z,18.78
2023-04-16T11:47:46.766Z,18.76
2023-04-16T11:50:20.202Z,18.79
2023-04-16T11:52:49.144Z,18.35
2023-04-16T11:55:19.061Z,18.77
2023-04-16T11:57:47.181Z,18.77
2023-04-16T12:00:16.029Z,18.79
2023-04-16T12:02:46.244Z,18.77
2023-04-16T12:05:32.405Z,18.76
2023-04-16T12:08:01.590Z,18.77
2023-04-16T12:10:31.666Z,18.76
2023-04-16T12:13:12.694Z,18.76
2023-04-16T12:15:51.709Z,18.77
2023-04-16T12:18:22.494Z,18.78
2023-04-16T12:20:51.466Z,18.78
2023-04-16T12:23:27.896Z,18.78
2023-04-16T12:26:02.826Z,18.78
2023-04-16T12:28:34.192Z,18.76
2023-04-16T12:31:03.546Z,18.76
2023-04-16T12:33:32.599Z,18.75
2023-04-16T12:36:01.696Z,18.76
2023-04-16T12:38:30.339Z,18.76
2023-04-16T12:41:02.708Z,18.73
2023-04-16T12:43:31.274Z,18.75
2023-04-16T12:46:00.231Z,18.75
2023-04-16T12:48:30.399Z,18.72
2023-04-16T12:50:58.899Z,18.75
2023-04-16T12:53:27.281Z,18.75
2023-04-16T12:55:55.628Z,18.75
2023-04-16T12:58:25.282Z,18.76
2023-04-16T13:00:53.456Z,18.75
2023-04-16T13:03:22.142Z,18.73
2023-04-16T13:05:50.657Z,18.75
2023-04-16T13:08:18.793Z,18.76
2023-04-16T13:10:46.879Z,18.77
2023-04-16T13:13:16.555Z,18.77
2023-04-16T13:15:46.137Z,18.76
2023-04-16T13:18:14.226Z,18.77
2023-04-16T13:20:42.419Z,18.77
2023-04-16T13:23:10.595Z,18.76
2023-04-16T13:25:38.717Z,18.75
2023-04-16T13:28:07.075Z,18.76
2023-04-16T13:30:35.233Z,18.75
2023-04-16T13:33:04.971Z,18.76
2023-04-16T13:35:33.095Z,18.77
2023-04-16T13:38:01.174Z,18.75
2023-04-16T13:40:29.369Z,18.75
2023-04-16T13:42:57.458Z,18.74
2023-04-16T13:45:25.609Z,18.73
2023-04-16T13:47:53.688Z,18.74
2023-04-16T13:50:24.215Z,18.75
2023-04-16T13:52:52.474Z,18.75
2023-04-16T13:55:20.589Z,18.76
2023-04-16T13:57:49.698Z,18.76
2023-04-16T14:00:18.784Z,18.75
2023-04-16T14:02:48.823Z,18.75
2023-04-16T14:05:17.183Z,18.75
2023-04-16T14:07:46.772Z,18.73
2023-04-16T14:10:14.916Z,18.75
2023-04-16T14:12:43.022Z,18.75
2023-04-16T14:15:11.545Z,18.23
2023-04-16T14:17:39.712Z,18.74
2023-04-16T14:20:08.822Z,18.74
2023-04-16T14:22:36.892Z,18.73
2023-04-16T14:25:07.312Z,18.73
2023-04-16T14:27:35.898Z,18.75
2023-04-16T14:30:04.049Z,18.75
2023-04-16T14:32:32.120Z,18.74
2023-04-16T14:35:00.169Z,18.75
2023-04-16T14:37:28.267Z,18.74
2023-04-16T14:39:56.514Z,18.74
2023-04-16T14:42:26.408Z,18.75
2023-04-16T14:44:54.458Z,18.74
2023-04-16T14:47:22.473Z,18.74
2023-04-16T14:49:50.563Z,18.74
2023-04-16T14:52:18.628Z,18.74
2023-04-16T14:54:47.897Z,18.74
2023-04-16T14:57:17.155Z,18.71
2023-04-16T14:59:46.684Z,18.74
2023-04-16T15:02:14.871Z,18.73
2023-04-16T15:04:43.080Z,18.73
2023-04-16T15:07:11.731Z,18.74
2023-04-16T15:09:39.835Z,18.70
2023-04-16T15:12:07.982Z,18.73
2023-04-16T15:14:36.022Z,18.66
2023-04-16T15:17:05.706Z,18.72
2023-04-16T15:19:33.807Z,18.73
2023-04-16T15:22:02.000Z,18.71
2023-04-16T15:24:30.123Z,18.73
2023-04-16T15:26:58.186Z,18.74
2023-04-16T15:29:26.304Z,18.74
2023-04-16T15:31:54.382Z,18.75
2023-04-16T15:34:23.835Z,18.74
2023-04-16T15:36:51.862Z,18.75
2023-04-16T15:39:20.895Z,18.75
2023-04-16T15:42:00.698Z,18.76
2023-04-16T15:44:31.118Z,18.75
2023-04-16T15:46:59.223Z,18.76
2023-04-16T15:49:28.702Z,18.77
2023-04-16T15:51:57.186Z,18.76
2023-04-16T15:54:25.371Z,18.76
2023-04-16T15:56:53.411Z,18.78
2023-04-16T15:59:21.525Z,18.78
2023-04-16T16:01:49.752Z,18.78
2023-04-16T16:04:17.995Z,18.75
2023-04-16T16:06:47.457Z,18.78
2023-04-16T16:09:15.724Z,18.78
2023-04-16T16:11:43.762Z,18.78
2023-04-16T16:14:12.012Z,18.79
2023-04-16T16:16:40.335Z,18.78
2023-04-16T16:19:08.535Z,18.79
2023-04-16T16:21:36.706Z,18.78
2023-04-16T16:24:06.552Z,18.79
2023-04-16T16:26:34.764Z,18.79
2023-04-16T16:29:02.867Z,18.80
2023-04-16T16:31:30.950Z,18.79
2023-04-16T16:33:59.020Z,18.80
2023-04-16T16:36:27.569Z,18.80
2023-04-16T16:38:55.653Z,18.80
2023-04-16T16:41:25.073Z,18.80
2023-04-16T16:43:56.230Z,18.78
2023-04-16T16:46:24.319Z,18.81
2023-04-16T16:48:52.363Z,18.78
2023-04-16T16:51:20.424Z,18.81
2023-04-16T16:53:48.445Z,18.82
2023-04-16T16:56:16.536Z,18.82
2023-04-16T16:58:46.435Z,18.82
2023-04-16T17:01:14.511Z,18.82
2023-04-16T17:03:42.706Z,18.83
2023-04-16T17:06:10.909Z,18.82
2023-04-16T17:08:38.938Z,18.83
2023-04-16T17:11:06.998Z,18.81
2023-04-16T17:13:35.014Z,18.74
2023-04-16T17:16:04.507Z,18.79
2023-04-16T17:18:32.565Z,18.79
2023-04-16T17:21:00.612Z,18.79
2023-04-16T17:23:28.845Z,18.73
2023-04-16T17:25:56.917Z,18.78
2023-04-16T17:28:25.485Z,18.79
2023-04-16T17:30:56.274Z,18.77
2023-04-16T17:33:25.798Z,18.79
2023-04-16T17:35:53.878Z,18.79
2023-04-16T17:38:21.960Z,18.80
2023-04-16T17:40:50.091Z,18.81
2023-04-16T17:43:18.181Z,18.83
2023-04-16T17:45:46.418Z,18.84
2023-04-16T17:48:14.562Z,18.81
2023-04-16T17:50:44.087Z,18.82
2023-04-16T17:53:12.553Z,18.82
2023-04-16T17:55:42.710Z,18.82
2023-04-16T17:58:10.892Z,18.81
2023-04-16T18:00:39.011Z,18.81
2023-04-16T18:03:09.782Z,18.80
2023-04-16T18:05:38.022Z,18.78
2023-04-16T18:08:07.786Z,18.79
2023-04-16T18:10:35.879Z,18.79
2023-04-16T18:13:03.974Z,18.79
2023-04-16T18:15:32.114Z,18.76
2023-04-16T18:18:00.420Z,18.79
2023-04-16T18:20:28.690Z,18.79
2023-04-16T18:22:56.767Z,18.79
2023-04-16T18:25:33.772Z,18.79
2023-04-16T18:28:03.828Z,18.76
2023-04-16T18:30:32.167Z,18.76
2023-04-16T18:33:30.656Z,18.78
2023-04-16T18:35:49.908Z,18.79
2023-04-16T18:38:17.999Z,18.78
2023-04-16T18:40:49.734Z,18.76
2023-04-16T18:43:17.916Z,18.78
2023-04-16T18:45:46.024Z,18.78
2023-04-16T18:48:14.125Z,18.78
2023-04-16T18:50:42.317Z,18.78
2023-04-16T18:53:10.570Z,18.77
2023-04-16T18:55:38.712Z,18.78
2023-04-16T18:58:08.211Z,18.78
2023-04-16T19:00:36.401Z,18.77
2023-04-16T19:03:07.103Z,18.78
2023-04-16T19:05:35.665Z,18.75
2023-04-16T19:08:03.764Z,18.76
2023-04-16T19:10:31.876Z,18.77
2023-04-16T19:12:59.958Z,18.77
2023-04-16T19:15:31.208Z,18.73
2023-04-16T19:18:00.795Z,18.77
2023-04-16T19:20:31.614Z,18.77
2023-04-16T19:22:59.927Z,18.78
2023-04-16T19:25:28.007Z,18.78
2023-04-16T19:27:56.907Z,18.77
2023-04-16T19:30:25.130Z,18.76
2023-04-16T19:32:55.579Z,18.78
2023-04-16T19:35:23.952Z,18.78
2023-04-16T19:37:52.572Z,18.78
2023-04-16T19:40:20.931Z,18.79
2023-04-16T19:42:49.550Z,18.78
2023-04-16T19:45:18.438Z,18.78
2023-04-16T19:47:48.856Z,18.78
2023-04-16T19:50:18.766Z,18.78
2023-04-16T19:52:47.086Z,18.78
2023-04-16T19:55:15.388Z,18.74
2023-04-16T19:57:43.576Z,18.77
2023-04-16T20:00:12.441Z,18.77
2023-04-16T20:02:40.811Z,18.76
2023-04-16T20:05:09.969Z,18.77
2023-04-16T20:07:39.464Z,18.78
2023-04-16T20:10:08.431Z,18.77
2023-04-16T20:12:37.906Z,18.77
2023-04-16T20:15:06.920Z,18.77
2023-04-16T20:17:35.336Z,18.77
2023-04-16T20:20:09.824Z,18.76
2023-04-16T20:22:39.548Z,18.77
2023-04-16T20:25:09.085Z,18.76
2023-04-16T20:27:37.265Z,18.76
2023-04-16T20:30:06.523Z,18.77
2023-04-16T20:32:34.728Z,18.77
2023-04-16T20:35:04.006Z,18.77
2023-04-16T20:37:32.545Z,18.76
2023-04-16T20:40:01.996Z,18.76
2023-04-16T20:42:32.291Z,18.76
2023-04-16T20:45:00.852Z,18.76
2023-04-16T20:47:28.954Z,18.75
2023-04-16T20:49:58.267Z,18.76
2023-04-16T20:52:26.329Z,18.75
2023-04-16T20:54:54.537Z,18.76
2023-04-16T20:57:23.946Z,18.76
2023-04-16T20:59:51.988Z,18.76
2023-04-16T21:02:20.705Z,18.75
2023-04-16T21:04:48.977Z,18.76
2023-04-16T21:07:17.058Z,18.74
2023-04-16T21:09:45.086Z,18.76
2023-04-16T21:12:13.143Z,18.75
2023-04-16T21:14:42.569Z,18.75
2023-04-16T21:17:10.801Z,18.74
2023-04-16T21:19:40.212Z,18.72
2023-04-16T21:22:08.273Z,18.74
2023-04-16T21:24:36.309Z,18.74
2023-04-16T21:27:04.461Z,18.74
2023-04-16T21:29:32.546Z,18.74
2023-04-16T21:32:02.103Z,18.72
2023-04-16T21:34:30.209Z,18.74
2023-04-16T21:36:58.263Z,18.74
2023-04-16T21:39:30.918Z,18.75
2023-04-16T21:41:59.134Z,18.74
2023-04-16T21:44:27.164Z,18.74
2023-04-16T21:46:55.250Z,18.72
2023-04-16T21:49:24.825Z,18.74
2023-04-16T21:51:59.099Z,18.74
2023-04-16T21:54:27.259Z,18.74
2023-04-16T21:56:55.367Z,18.74
2023-04-16T21:59:23.490Z,18.73
2023-04-16T22:01:51.665Z,18.70
2023-04-16T22:04:26.191Z,18.73
2023-04-16T22:06:56.478Z,18.74
2023-04-16T22:09:25.012Z,18.71
2023-04-16T22:11:53.340Z,18.74
2023-04-16T22:14:21.709Z,18.74
2023-04-16T22:16:52.301Z,18.74
2023-04-16T22:19:21.724Z,18.73
2023-04-16T22:21:50.308Z,18.72
2023-04-16T22:24:19.891Z,18.72
2023-04-16T22:26:47.996Z,18.74
2023-04-16T22:29:16.221Z,18.73
2023-04-16T22:31:44.429Z,18.74
2023-04-16T22:34:12.576Z,18.73
2023-04-16T22:36:41.359Z,18.73
2023-04-16T22:39:09.778Z,18.73
2023-04-16T22:41:39.579Z,18.73
2023-04-16T22:44:07.762Z,18.74
2023-04-16T22:46:36.012Z,18.73
2023-04-16T22:49:04.127Z,18.73
2023-04-16T22:51:32.509Z,18.73
2023-04-16T22:54:00.604Z,18.73
2023-04-16T22:56:30.426Z,18.71
2023-04-16T22:58:59.997Z,18.72
2023-04-16T23:01:28.162Z,18.69
2023-04-16T23:03:56.380Z,18.73
2023-04-16T23:06:24.565Z,18.72
2023-04-16T23:08:52.672Z,18.67
2023-04-16T23:11:20.951Z,18.66
2023-04-16T23:13:49.035Z,18.68
2023-04-16T23:16:18.551Z,18.69
2023-04-16T23:18:46.679Z,18.69
2023-04-16T23:21:14.778Z,18.69
2023-04-16T23:23:42.865Z,18.68
2023-04-16T23:26:10.956Z,18.69
2023-04-16T23:28:39.117Z,18.68
2023-04-16T23:31:07.644Z,18.69
2023-04-16T23:33:37.223Z,18.70
2023-04-16T23:36:05.847Z,18.68
2023-04-16T23:38:33.994Z,18.66
2023-04-16T23:41:02.163Z,18.68
2023-04-16T23:43:30.256Z,18.69
2023-04-16T23:45:58.391Z,18.69
2023-04-16T23:48:26.501Z,18.70
2023-04-16T23:50:56.026Z,18.69
2023-04-16T23:53:24.150Z,18.67
2023-04-16T23:55:52.676Z,18.68
2023-04-16T23:58:20.765Z,18.70
